Rockland, Delaware
Current Conditions -  °F | °C
As of 10:51 PM on Tuesday 21 Oct 2014 (Local Time) from KILG Reporting Station
Overcast Overcast  
Wind Chill: 56°   Ceiling: 8500
Heat Index: 56°   Visibility: 10mi
Dew Point: 50°   Wind: 8mph
Humidity: 80%   Direction: 350°N
Pressure: 29.88"   Gusts: NA
Location:  39.8°N, 75.57°W
Report Text: KILG 220251Z 35007KT 10SM OVC085 13/10 A2988 RMK AO2 SLP118 T01330100 51010
Loading
Personal Weather Stations






























Interactive Weather Map
Tropical Storm Tracking
New forecast layout! Learn more

10-Day Weather Forecast

Advertisements
Track Severe Weather on mobile